createdAt,value
2023-05-05T00:01:08.323Z,38.11
2023-05-05T00:03:55.146Z,38.42
2023-05-05T00:06:42.309Z,38.58
2023-05-05T00:09:29.698Z,38.59
2023-05-05T00:12:16.558Z,38.25
2023-05-05T00:15:03.445Z,38.59
2023-05-05T00:17:50.281Z,38.33
2023-05-05T00:20:37.639Z,38.37
2023-05-05T00:23:24.354Z,38.48
2023-05-05T00:26:11.102Z,38.72
2023-05-05T00:28:57.862Z,38.76
2023-05-05T00:31:44.638Z,38.45
2023-05-05T00:34:31.864Z,38.63
2023-05-05T00:37:18.690Z,38.78
2023-05-05T00:40:06.816Z,39.03
2023-05-05T00:42:53.930Z,39.00
2023-05-05T00:45:42.945Z,38.80
2023-05-05T00:48:30.501Z,38.92
2023-05-05T00:51:17.440Z,39.02
2023-05-05T00:54:04.520Z,38.97
2023-05-05T00:56:51.332Z,39.13
2023-05-05T00:59:38.183Z,39.19
2023-05-05T01:02:24.993Z,39.05
2023-05-05T01:05:13.338Z,39.13
2023-05-05T01:08:06.172Z,39.29
2023-05-05T01:10:58.019Z,39.34
2023-05-05T01:14:02.854Z,39.22
2023-05-05T01:16:53.629Z,39.13
2023-05-05T01:19:43.478Z,39.18
2023-05-05T01:22:35.172Z,39.42
2023-05-05T01:25:31.789Z,39.41
2023-05-05T01:28:31.578Z,39.48
2023-05-05T01:31:23.838Z,39.29
2023-05-05T01:34:11.124Z,39.54
2023-05-05T01:37:11.756Z,39.54
2023-05-05T01:39:59.573Z,39.56
2023-05-05T01:42:46.397Z,39.46
2023-05-05T01:45:33.786Z,39.56
2023-05-05T01:48:20.816Z,39.32
2023-05-05T01:51:07.976Z,39.72
2023-05-05T01:53:57.099Z,39.76
2023-05-05T01:56:43.875Z,39.78
2023-05-05T01:59:30.823Z,39.80
2023-05-05T02:02:18.027Z,39.89
2023-05-05T02:05:05.407Z,39.84
2023-05-05T02:07:52.772Z,39.95
2023-05-05T02:10:43.521Z,39.93
2023-05-05T02:13:30.885Z,40.06
2023-05-05T02:16:17.920Z,39.71
2023-05-05T02:19:05.181Z,39.99
2023-05-05T02:21:52.020Z,40.08
2023-05-05T02:24:38.814Z,40.18
2023-05-05T02:27:25.598Z,40.05
2023-05-05T02:30:13.387Z,40.00
2023-05-05T02:33:00.738Z,39.86
2023-05-05T02:35:47.631Z,40.13
2023-05-05T02:38:34.359Z,40.11
2023-05-05T02:41:21.374Z,39.94
2023-05-05T02:44:08.408Z,40.23
2023-05-05T02:46:55.351Z,40.25
2023-05-05T02:49:42.877Z,40.39
2023-05-05T02:52:29.747Z,40.36
2023-05-05T02:55:16.630Z,40.56
2023-05-05T02:58:03.362Z,40.61
2023-05-05T03:00:50.071Z,40.37
2023-05-05T03:03:55.635Z,40.65
2023-05-05T03:06:42.935Z,40.61
2023-05-05T03:09:48.496Z,40.76
2023-05-05T03:12:54.241Z,40.61
2023-05-05T03:15:45.927Z,40.88
2023-05-05T03:18:34.413Z,40.65
2023-05-05T03:21:21.284Z,40.57
2023-05-05T03:24:15.626Z,40.61
2023-05-05T03:27:03.139Z,40.62
2023-05-05T03:29:49.978Z,40.59
2023-05-05T03:32:36.901Z,40.51
2023-05-05T03:35:24.014Z,40.88
2023-05-05T03:38:10.863Z,40.77
2023-05-05T03:40:57.658Z,40.68
2023-05-05T03:43:44.485Z,40.99
2023-05-05T03:46:31.334Z,40.88
2023-05-05T03:49:18.087Z,41.14
2023-05-05T03:52:05.079Z,40.76
2023-05-05T03:54:51.996Z,40.66
2023-05-05T03:57:38.786Z,40.73
2023-05-05T04:00:25.625Z,40.94
2023-05-05T04:03:12.532Z,41.11
2023-05-05T04:05:59.401Z,40.83
2023-05-05T04:08:46.491Z,40.80
2023-05-05T04:11:33.511Z,41.41
2023-05-05T04:14:20.384Z,41.36
2023-05-05T04:17:07.190Z,41.28
2023-05-05T04:19:53.991Z,41.69
2023-05-05T04:22:40.839Z,41.64
2023-05-05T04:25:27.572Z,41.67
2023-05-05T04:28:14.427Z,41.82
2023-05-05T04:31:02.683Z,41.77
2023-05-05T04:33:49.469Z,41.89
2023-05-05T04:36:36.295Z,41.84
2023-05-05T04:39:23.053Z,41.62
2023-05-05T04:42:10.326Z,41.33
2023-05-05T04:44:57.111Z,40.89
2023-05-05T04:47:43.989Z,40.63
2023-05-05T04:50:31.108Z,40.89
2023-05-05T04:53:17.999Z,41.29
2023-05-05T04:56:04.825Z,41.34
2023-05-05T04:58:51.624Z,41.63
2023-05-05T05:01:38.776Z,41.86
2023-05-05T05:04:27.259Z,41.59
2023-05-05T05:07:15.133Z,41.92
2023-05-05T05:10:01.901Z,41.90
2023-05-05T05:12:48.694Z,41.88
2023-05-05T05:15:38.159Z,41.90
2023-05-05T05:18:24.976Z,42.03
2023-05-05T05:21:11.825Z,42.54
2023-05-05T05:23:58.636Z,42.11
2023-05-05T05:26:45.395Z,42.19
2023-05-05T05:29:32.161Z,42.33
2023-05-05T05:32:18.957Z,42.07
2023-05-05T05:35:06.072Z,42.29
2023-05-05T05:37:52.941Z,42.08
2023-05-05T05:40:39.693Z,42.75
2023-05-05T05:43:26.439Z,42.85
2023-05-05T05:46:13.282Z,42.91
2023-05-05T05:49:00.058Z,43.78
2023-05-05T05:51:56.699Z,44.35
2023-05-05T05:54:43.635Z,44.42
2023-05-05T05:57:30.579Z,44.74
2023-05-05T06:00:17.417Z,45.35
2023-05-05T06:03:04.365Z,44.70
2023-05-05T06:05:51.272Z,44.79
2023-05-05T06:08:38.052Z,45.64
2023-05-05T06:11:24.784Z,45.13
2023-05-05T06:14:11.562Z,44.94
2023-05-05T06:16:58.299Z,44.88
2023-05-05T06:19:45.056Z,44.45
2023-05-05T06:22:31.827Z,44.94
2023-05-05T06:25:18.620Z,44.76
2023-05-05T06:28:05.644Z,44.36
2023-05-05T06:30:52.507Z,44.38
2023-05-05T06:33:39.279Z,44.26
2023-05-05T06:36:26.368Z,44.34
2023-05-05T06:39:15.283Z,44.11
2023-05-05T06:42:04.148Z,44.38
2023-05-05T06:44:51.007Z,44.00
2023-05-05T06:47:37.914Z,43.70
2023-05-05T06:50:24.721Z,43.38
2023-05-05T06:53:11.612Z,43.95
2023-05-05T06:55:58.371Z,43.86
2023-05-05T06:58:45.207Z,43.90
2023-05-05T07:01:32.047Z,43.71
2023-05-05T07:04:19.006Z,43.51
2023-05-05T07:07:05.995Z,42.99
2023-05-05T07:09:52.722Z,43.32
2023-05-05T07:12:39.517Z,43.25
2023-05-05T07:15:29.188Z,43.67
2023-05-05T07:18:16.913Z,43.27
2023-05-05T07:21:06.270Z,42.97
2023-05-05T07:23:53.410Z,43.14
2023-05-05T07:26:40.238Z,43.43
2023-05-05T07:29:27.135Z,43.42
2023-05-05T07:32:14.055Z,43.05
2023-05-05T07:35:00.873Z,42.91
2023-05-05T07:37:47.714Z,42.73
2023-05-05T07:40:34.595Z,42.63
2023-05-05T07:43:21.372Z,43.06
2023-05-05T07:46:08.274Z,42.78
2023-05-05T07:48:55.054Z,42.74
2023-05-05T07:51:42.210Z,42.98
2023-05-05T07:54:29.116Z,42.75
2023-05-05T07:57:16.093Z,42.62
2023-05-05T08:00:03.271Z,42.80
2023-05-05T08:02:50.193Z,42.96
2023-05-05T08:05:37.901Z,42.58
2023-05-05T08:08:25.177Z,42.79
2023-05-05T08:11:12.043Z,42.31
2023-05-05T08:13:58.795Z,42.62
2023-05-05T08:16:45.627Z,42.27
2023-05-05T08:19:32.418Z,42.52
2023-05-05T08:22:19.182Z,42.43
2023-05-05T08:25:06.486Z,42.03
2023-05-05T08:27:53.699Z,41.99
2023-05-05T08:30:40.712Z,42.33
2023-05-05T08:33:27.492Z,42.39
2023-05-05T08:36:14.349Z,42.60
2023-05-05T08:39:01.477Z,42.25
2023-05-05T08:41:48.468Z,42.32
2023-05-05T08:44:35.267Z,42.27
2023-05-05T08:47:22.046Z,42.43
2023-05-05T08:50:10.045Z,42.17
2023-05-05T08:53:17.169Z,42.37
2023-05-05T08:56:04.172Z,42.46
2023-05-05T08:58:51.402Z,42.42
2023-05-05T09:01:38.213Z,42.30
2023-05-05T09:04:25.026Z,42.54
2023-05-05T09:07:11.789Z,42.27
2023-05-05T09:09:59.986Z,42.24
2023-05-05T09:12:46.833Z,42.34
2023-05-05T09:15:34.152Z,42.29
2023-05-05T09:18:21.349Z,42.42
2023-05-05T09:21:34.877Z,42.36
2023-05-05T09:24:22.056Z,42.02
2023-05-05T09:27:21.289Z,42.21
2023-05-05T09:30:08.859Z,42.47
2023-05-05T09:32:55.945Z,42.14
2023-05-05T09:35:52.804Z,42.32
2023-05-05T09:38:39.745Z,42.23
2023-05-05T09:41:39.420Z,42.09
2023-05-05T09:44:36.001Z,42.41
2023-05-05T09:47:29.317Z,42.31
2023-05-05T09:50:19.010Z,41.90
2023-05-05T09:53:06.187Z,42.25
2023-05-05T09:55:56.599Z,41.96
2023-05-05T09:58:43.365Z,42.08
2023-05-05T10:01:30.185Z,41.97
2023-05-05T10:04:24.550Z,42.09
2023-05-05T10:07:11.457Z,42.05
2023-05-05T10:09:58.207Z,41.95
2023-05-05T10:12:48.406Z,42.09
2023-05-05T10:15:35.915Z,42.11
2023-05-05T10:18:27.972Z,42.02
2023-05-05T10:21:14.985Z,42.22
2023-05-05T10:24:10.567Z,42.22
2023-05-05T10:26:58.301Z,42.06
2023-05-05T10:29:47.796Z,42.09
2023-05-05T10:35:31.652Z,41.87
2023-05-05T10:38:18.452Z,41.95
2023-05-05T10:41:05.313Z,41.79
2023-05-05T10:43:53.017Z,41.91
2023-05-05T10:46:39.834Z,41.79
2023-05-05T10:49:37.569Z,41.88
2023-05-05T10:52:45.242Z,41.62
2023-05-05T10:55:37.145Z,41.44
2023-05-05T10:58:51.158Z,41.70
2023-05-05T11:01:42.805Z,41.51
2023-05-05T11:04:29.624Z,41.44
2023-05-05T11:07:16.415Z,41.15
2023-05-05T11:10:04.228Z,41.43
2023-05-05T11:12:54.320Z,41.53
2023-05-05T11:15:41.652Z,41.52
2023-05-05T11:18:28.850Z,41.75
2023-05-05T11:21:16.358Z,41.51
2023-05-05T11:24:18.309Z,41.26
2023-05-05T11:27:05.732Z,41.34
2023-05-05T11:30:05.690Z,41.31
2023-05-05T11:33:11.372Z,41.42
2023-05-05T11:35:58.130Z,41.60
2023-05-05T11:38:48.037Z,41.50
2023-05-05T11:41:43.944Z,41.62
2023-05-05T11:44:31.651Z,41.26
2023-05-05T11:47:18.336Z,41.42
2023-05-05T11:50:18.526Z,41.52
2023-05-05T11:53:05.506Z,41.26
2023-05-05T11:56:05.954Z,41.26
2023-05-05T11:59:09.568Z,41.29
2023-05-05T12:01:56.713Z,41.34
2023-05-05T12:04:43.725Z,41.17
2023-05-05T12:07:31.330Z,41.06
2023-05-05T12:10:22.382Z,41.25
2023-05-05T12:13:21.631Z,40.96
2023-05-05T12:16:08.442Z,40.86
2023-05-05T12:19:03.191Z,40.82
2023-05-05T12:21:49.970Z,40.79
2023-05-05T12:24:36.727Z,40.80
2023-05-05T12:27:23.652Z,40.80
2023-05-05T12:30:11.741Z,40.67
2023-05-05T12:33:05.614Z,40.73
2023-05-05T12:35:52.464Z,40.72
2023-05-05T12:38:39.250Z,40.73
2023-05-05T12:41:26.047Z,40.75
2023-05-05T12:44:13.220Z,40.77
2023-05-05T12:47:00.001Z,40.94
2023-05-05T12:49:47.223Z,40.81
2023-05-05T12:52:40.521Z,41.02
2023-05-05T12:55:40.103Z,41.25
2023-05-05T12:58:27.957Z,41.46
2023-05-05T13:01:14.841Z,41.20
2023-05-05T13:04:04.640Z,41.27
2023-05-05T13:07:08.224Z,40.97
2023-05-05T13:10:05.963Z,41.26
2023-05-05T13:12:54.943Z,41.51
2023-05-05T13:15:41.707Z,41.46
2023-05-05T13:18:28.489Z,41.53
2023-05-05T13:21:15.258Z,41.60
2023-05-05T13:24:19.726Z,41.40
2023-05-05T13:27:09.204Z,41.62
2023-05-05T13:29:56.438Z,41.40
2023-05-05T13:32:43.209Z,41.22
2023-05-05T13:35:30.530Z,41.41
2023-05-05T13:38:17.337Z,41.01
2023-05-05T13:41:04.138Z,41.63
2023-05-05T13:43:51.389Z,41.75
2023-05-05T13:46:38.150Z,41.48
2023-05-05T13:49:25.663Z,41.71
2023-05-05T13:52:12.404Z,41.93
2023-05-05T13:54:59.169Z,41.71
2023-05-05T13:57:46.548Z,41.71
2023-05-05T14:00:35.243Z,41.73
2023-05-05T14:03:22.026Z,41.96
2023-05-05T14:06:09.220Z,41.87
2023-05-05T14:08:56.313Z,41.97
2023-05-05T14:11:43.120Z,42.19
2023-05-05T14:14:30.666Z,42.40
2023-05-05T14:17:17.536Z,42.31
2023-05-05T14:20:04.512Z,42.08
2023-05-05T14:22:51.899Z,42.25
2023-05-05T14:25:38.741Z,42.58
2023-05-05T14:28:25.675Z,42.54
2023-05-05T14:31:12.432Z,42.62
2023-05-05T14:33:59.168Z,42.41
2023-05-05T14:36:46.264Z,42.51
2023-05-05T14:39:32.987Z,42.47
2023-05-05T14:42:19.743Z,42.71
2023-05-05T14:45:07.423Z,42.64
2023-05-05T14:47:54.273Z,42.65
2023-05-05T14:50:42.507Z,42.84
2023-05-05T14:53:29.374Z,42.77
2023-05-05T14:56:16.345Z,42.76
2023-05-05T14:59:03.133Z,42.86
2023-05-05T15:01:49.882Z,43.05
2023-05-05T15:04:36.795Z,43.06
2023-05-05T15:07:28.328Z,43.09
2023-05-05T15:10:15.164Z,42.96
2023-05-05T15:13:02.078Z,43.04
2023-05-05T15:15:49.034Z,43.15
2023-05-05T15:18:36.021Z,43.06
2023-05-05T15:21:22.769Z,43.12
2023-05-05T15:24:09.534Z,43.28
2023-05-05T15:26:56.361Z,43.42
2023-05-05T15:29:43.422Z,43.25
2023-05-05T15:32:30.435Z,43.31
2023-05-05T15:35:17.216Z,43.38
2023-05-05T15:38:04.165Z,43.51
2023-05-05T15:40:50.937Z,43.50
2023-05-05T15:43:37.786Z,43.36
2023-05-05T15:46:24.617Z,43.53
2023-05-05T15:49:11.461Z,43.63
2023-05-05T15:51:58.292Z,43.37
2023-05-05T15:54:45.391Z,43.39
2023-05-05T15:57:33.182Z,43.62
2023-05-05T16:00:20.391Z,43.56
2023-05-05T16:03:07.256Z,43.37
2023-05-05T16:05:54.076Z,43.38
2023-05-05T16:08:40.977Z,43.53
2023-05-05T16:11:27.867Z,43.53
2023-05-05T16:14:14.612Z,43.53
2023-05-05T16:17:04.444Z,43.48
2023-05-05T16:19:51.301Z,43.68
2023-05-05T16:22:38.056Z,44.79
2023-05-05T16:25:24.902Z,44.59
2023-05-05T16:28:11.689Z,44.66
2023-05-05T16:30:58.458Z,44.53
2023-05-05T16:33:45.742Z,44.51
2023-05-05T16:36:32.493Z,44.64
2023-05-05T16:39:19.233Z,44.62
2023-05-05T16:42:06.299Z,44.70
2023-05-05T16:44:53.076Z,44.68
2023-05-05T16:47:39.925Z,44.82
2023-05-05T16:50:26.791Z,44.78
2023-05-05T16:53:13.591Z,44.74
2023-05-05T16:56:00.489Z,44.93
2023-05-05T16:58:47.278Z,45.07
2023-05-05T17:01:34.959Z,45.04
2023-05-05T17:04:21.895Z,45.00
2023-05-05T17:07:08.648Z,45.04
2023-05-05T17:09:55.379Z,45.22
2023-05-05T17:12:42.313Z,44.97
2023-05-05T17:15:29.148Z,45.04
2023-05-05T17:18:15.922Z,45.15
2023-05-05T17:21:02.691Z,45.20
2023-05-05T17:23:49.456Z,45.36
2023-05-05T17:26:36.471Z,45.46
2023-05-05T17:29:23.420Z,45.47
2023-05-05T17:32:10.319Z,45.46
2023-05-05T17:34:57.284Z,45.39
2023-05-05T17:37:44.038Z,45.56
2023-05-05T17:40:30.894Z,45.45
2023-05-05T17:43:17.726Z,45.57
2023-05-05T17:46:04.538Z,45.64
2023-05-05T17:48:51.952Z,45.72
2023-05-05T17:51:38.688Z,45.62
2023-05-05T17:54:25.749Z,45.79
2023-05-05T17:57:17.017Z,45.62
2023-05-05T18:00:04.673Z,45.88
2023-05-05T18:02:51.553Z,45.93
2023-05-05T18:05:38.402Z,45.94
2023-05-05T18:08:25.195Z,46.13
2023-05-05T18:11:12.021Z,46.04
2023-05-05T18:13:58.823Z,46.52
2023-05-05T18:16:49.721Z,46.85
2023-05-05T18:19:36.483Z,47.35
2023-05-05T18:22:23.286Z,47.53
2023-05-05T18:25:10.251Z,48.05
2023-05-05T18:27:57.119Z,48.37
2023-05-05T18:30:43.894Z,48.97
2023-05-05T18:33:30.675Z,49.22
2023-05-05T18:36:17.529Z,49.40
2023-05-05T18:39:04.293Z,49.61
2023-05-05T18:41:51.121Z,49.80
2023-05-05T18:44:37.906Z,50.21
2023-05-05T18:47:24.725Z,50.22
2023-05-05T18:50:12.441Z,50.16
2023-05-05T18:52:59.214Z,50.02
2023-05-05T18:55:47.111Z,50.06
2023-05-05T18:58:33.972Z,50.06
2023-05-05T19:01:20.977Z,50.36
2023-05-05T19:04:12.934Z,50.47
2023-05-05T19:07:09.623Z,50.79
2023-05-05T19:09:56.467Z,50.92
2023-05-05T19:12:43.273Z,51.11
2023-05-05T19:15:30.128Z,51.59
2023-05-05T19:18:16.940Z,51.72
2023-05-05T19:21:03.688Z,52.30
2023-05-05T19:23:50.670Z,51.59
2023-05-05T19:26:37.465Z,51.17
2023-05-05T19:29:24.181Z,50.60
2023-05-05T19:32:11.037Z,50.22
2023-05-05T19:34:58.023Z,49.80
2023-05-05T19:37:44.821Z,49.63
2023-05-05T19:40:31.622Z,49.26
2023-05-05T19:43:18.401Z,49.05
2023-05-05T19:46:05.276Z,48.71
2023-05-05T19:48:52.171Z,48.74
2023-05-05T19:51:39.050Z,48.58
2023-05-05T19:54:26.014Z,48.44
2023-05-05T19:57:12.977Z,48.56
2023-05-05T19:59:59.804Z,48.30
2023-05-05T20:02:47.428Z,48.28
2023-05-05T20:05:34.307Z,48.18
2023-05-05T20:08:21.129Z,48.32
2023-05-05T20:11:07.890Z,48.15
2023-05-05T20:13:54.728Z,48.09
2023-05-05T20:16:42.077Z,48.15
2023-05-05T20:19:28.928Z,48.20
2023-05-05T20:22:15.737Z,48.14
2023-05-05T20:25:02.553Z,48.04
2023-05-05T20:27:49.586Z,48.12
2023-05-05T20:30:36.340Z,48.28
2023-05-05T20:33:23.336Z,48.09
2023-05-05T20:36:10.617Z,48.18
2023-05-05T20:38:57.393Z,48.42
2023-05-05T20:41:46.242Z,48.27
2023-05-05T20:44:32.966Z,48.46
2023-05-05T20:47:19.710Z,48.52
2023-05-05T20:50:06.884Z,48.48
2023-05-05T20:52:53.769Z,48.56
2023-05-05T20:55:40.829Z,48.51
2023-05-05T20:58:27.610Z,48.54
2023-05-05T21:01:17.672Z,48.67
2023-05-05T21:04:04.574Z,48.76
2023-05-05T21:06:51.610Z,48.74
2023-05-05T21:09:38.392Z,48.92
2023-05-05T21:12:25.926Z,48.98
2023-05-05T21:15:12.732Z,49.02
2023-05-05T21:17:59.585Z,49.05
2023-05-05T21:20:46.354Z,49.09
2023-05-05T21:23:33.685Z,49.08
2023-05-05T21:26:21.174Z,49.19
2023-05-05T21:29:07.961Z,49.21
2023-05-05T21:31:54.755Z,49.34
2023-05-05T21:34:41.640Z,49.26
2023-05-05T21:37:28.553Z,49.38
2023-05-05T21:40:16.265Z,49.26
2023-05-05T21:43:05.647Z,49.33
2023-05-05T21:45:59.466Z,49.34
2023-05-05T21:48:46.465Z,49.53
2023-05-05T21:51:34.501Z,49.32
2023-05-05T21:54:21.331Z,49.50
2023-05-05T21:57:08.139Z,49.52
2023-05-05T21:59:54.915Z,49.66
2023-05-05T22:02:41.793Z,49.50
2023-05-05T22:05:28.730Z,49.69
2023-05-05T22:08:15.473Z,49.62
2023-05-05T22:11:02.297Z,49.73
2023-05-05T22:13:49.072Z,49.67
2023-05-05T22:16:36.024Z,49.64
2023-05-05T22:19:22.796Z,49.82
2023-05-05T22:22:09.529Z,49.97
2023-05-05T22:24:56.539Z,49.81
2023-05-05T22:27:43.441Z,49.91
2023-05-05T22:30:30.240Z,50.22
2023-05-05T22:33:17.072Z,50.15
2023-05-05T22:36:03.971Z,50.19
2023-05-05T22:38:50.719Z,50.16
2023-05-05T22:41:37.521Z,50.31
2023-05-05T22:44:24.322Z,50.12
2023-05-05T22:47:11.355Z,50.19
2023-05-05T22:49:58.395Z,50.18
2023-05-05T22:52:45.307Z,50.45
2023-05-05T22:55:32.339Z,50.57
2023-05-05T22:58:19.103Z,50.55
2023-05-05T23:01:05.890Z,50.68
2023-05-05T23:03:52.789Z,50.60
2023-05-05T23:06:42.619Z,50.70
2023-05-05T23:09:29.449Z,50.63
2023-05-05T23:12:16.743Z,50.73
2023-05-05T23:15:03.751Z,50.98
2023-05-05T23:17:50.561Z,50.79
2023-05-05T23:20:37.398Z,50.97
2023-05-05T23:23:24.155Z,50.83
2023-05-05T23:26:11.811Z,51.13
2023-05-05T23:28:58.548Z,51.12
2023-05-05T23:31:45.791Z,51.26
2023-05-05T23:34:32.689Z,51.16
2023-05-05T23:37:19.507Z,51.29
2023-05-05T23:40:06.921Z,51.24
2023-05-05T23:42:53.695Z,51.25
2023-05-05T23:45:40.579Z,51.33
2023-05-05T23:48:27.285Z,51.21
2023-05-05T23:51:14.459Z,51.40
2023-05-05T23:54:01.239Z,51.36
2023-05-05T23:56:48.037Z,51.32
2023-05-05T23:59:34.832Z,51.69
